createdAt,value
2023-02-14T00:00:02.674Z,4.06
2023-02-14T00:05:02.474Z,4.08
2023-02-14T00:10:02.280Z,4.27
2023-02-14T00:15:03.099Z,4.39
2023-02-14T00:20:02.785Z,4.28
2023-02-14T00:25:02.486Z,4.32
2023-02-14T00:30:02.472Z,4.3
2023-02-14T00:35:02.505Z,4.27
2023-02-14T00:40:02.302Z,4.27
2023-02-14T00:45:03.141Z,4.14
2023-02-14T00:50:03.148Z,3.9
2023-02-14T00:55:03.333Z,3.92
2023-02-14T01:00:03.160Z,3.88
2023-02-14T01:05:02.781Z,3.87
2023-02-14T01:10:02.509Z,3.94
2023-02-14T01:15:03.230Z,3.85
2023-02-14T01:20:02.203Z,3.8
2023-02-14T01:25:03.024Z,3.74
2023-02-14T01:30:03.045Z,3.74
2023-02-14T01:35:02.828Z,3.69
2023-02-14T01:40:02.639Z,3.65
2023-02-14T01:45:02.403Z,3.68
2023-02-14T01:50:02.255Z,3.71
2023-02-14T01:55:03.478Z,3.75
2023-02-14T02:00:03.098Z,3.77
2023-02-14T02:05:02.631Z,3.75
2023-02-14T02:10:02.492Z,3.74
2023-02-14T02:15:02.783Z,3.67
2023-02-14T02:20:02.366Z,3.57
2023-02-14T02:25:03.079Z,3.5
2023-02-14T02:30:03.212Z,3.5
2023-02-14T02:35:02.801Z,3.53
2023-02-14T02:40:02.497Z,3.48
2023-02-14T02:45:02.713Z,3.46
2023-02-14T02:50:02.368Z,3.56
2023-02-14T02:55:04.083Z,3.65
2023-02-14T03:00:03.038Z,3.7
2023-02-14T03:05:02.683Z,3.7
2023-02-14T03:10:02.285Z,3.74
2023-02-14T03:15:03.120Z,3.78
2023-02-14T03:20:03.042Z,3.71
2023-02-14T03:25:02.911Z,3.62
2023-02-14T03:30:02.605Z,3.62
2023-02-14T03:35:02.355Z,3.65
2023-02-14T03:40:03.103Z,3.73
2023-02-14T03:45:02.999Z,3.76
2023-02-14T03:50:02.903Z,3.76
2023-02-14T03:55:03.449Z,3.74
2023-02-14T04:00:02.955Z,3.7
2023-02-14T04:05:02.542Z,3.64
2023-02-14T04:10:02.684Z,3.58
2023-02-14T04:15:02.811Z,3.53
2023-02-14T04:20:02.818Z,3.47
2023-02-14T04:25:02.313Z,3.57
2023-02-14T04:30:03.079Z,3.5
2023-02-14T04:35:02.744Z,3.41
2023-02-14T04:40:02.486Z,3.35
2023-02-14T04:45:04.160Z,3.32
2023-02-14T04:50:03.448Z,3.33
2023-02-14T04:55:03.536Z,3.32
2023-02-14T05:00:02.604Z,3.25
2023-02-14T05:05:02.236Z,3.23
2023-02-14T05:10:03.011Z,3.27
2023-02-14T05:15:02.801Z,3.25
2023-02-14T05:20:02.490Z,3.43
2023-02-14T05:25:03.257Z,3.44
2023-02-14T05:30:03.006Z,3.47
2023-02-14T05:35:02.688Z,3.46
2023-02-14T05:40:02.412Z,3.34
2023-02-14T05:45:02.319Z,3.42
2023-02-14T05:50:03.017Z,3.39
2023-02-14T05:55:03.313Z,3.32
2023-02-14T06:00:03.076Z,2.98
2023-02-14T06:05:02.897Z,3.17
2023-02-14T06:10:02.596Z,3.13
2023-02-14T06:15:02.477Z,3.16
2023-02-14T06:20:02.634Z,3.46
2023-02-14T06:25:03.272Z,3.22
2023-02-14T06:30:02.697Z,3.2
2023-02-14T06:35:02.452Z,3.3
2023-02-14T06:40:03.010Z,3.39
2023-02-14T06:45:03.000Z,3.44
2023-02-14T06:50:02.736Z,3.44
2023-02-14T06:55:03.201Z,3.54
2023-02-14T07:00:02.389Z,3.59
2023-02-14T07:05:02.413Z,3.56
2023-02-14T07:10:03.161Z,3.56
2023-02-14T07:15:03.105Z,3.63
2023-02-14T07:20:02.845Z,3.73
2023-02-14T07:25:02.478Z,3.79
2023-02-14T07:30:03.247Z,3.83
2023-02-14T07:35:02.930Z,3.97
2023-02-14T07:40:02.974Z,4
2023-02-14T07:45:09.570Z,4.12
2023-02-14T07:50:02.922Z,4.15
2023-02-14T07:55:03.525Z,4.29
2023-02-14T08:00:02.630Z,4.34
2023-02-14T08:05:02.445Z,4.4
2023-02-14T08:10:03.128Z,4.49
2023-02-14T08:15:02.423Z,4.42
2023-02-14T08:20:03.065Z,4.63
2023-02-14T08:25:02.980Z,4.74
2023-02-14T08:30:03.007Z,4.8
2023-02-14T08:35:02.481Z,4.93
2023-02-14T08:40:02.270Z,5.01
2023-02-14T08:45:03.032Z,5.04
2023-02-14T08:50:02.899Z,5.12
2023-02-14T08:55:03.062Z,5.19
2023-02-14T09:00:02.748Z,5.44
2023-02-14T09:05:02.594Z,5.49
2023-02-14T09:10:02.339Z,5.45
2023-02-14T09:15:03.099Z,5.62
2023-02-14T09:20:02.759Z,5.69
2023-02-14T09:25:02.676Z,5.68
2023-02-14T09:30:02.418Z,5.58
2023-02-14T09:35:03.055Z,5.46
2023-02-14T09:40:02.868Z,5.52
2023-02-14T09:45:02.773Z,5.54
2023-02-14T09:50:02.819Z,5.64
2023-02-14T09:55:03.370Z,5.38
2023-02-14T10:00:03.037Z,5.52
2023-02-14T10:05:02.676Z,5.72
2023-02-14T10:10:02.351Z,5.56
2023-02-14T10:15:03.236Z,5.35
2023-02-14T10:20:03.182Z,5.47
2023-02-14T10:25:02.874Z,5.62
2023-02-14T10:30:02.763Z,5.48
2023-02-14T10:35:02.559Z,5.49
2023-02-14T10:40:02.622Z,5.56
2023-02-14T10:45:02.324Z,5.7
2023-02-14T10:50:03.084Z,5.65
2023-02-14T10:55:03.717Z,5.61
2023-02-14T11:00:02.542Z,5.52
2023-02-14T11:05:02.360Z,5.66
2023-02-14T11:10:03.070Z,5.64
2023-02-14T11:15:03.161Z,5.57
2023-02-14T11:20:02.989Z,5.57
2023-02-14T11:25:04.413Z,5.74
2023-02-14T11:30:03.241Z,5.77
2023-02-14T11:35:03.055Z,5.72
2023-02-14T11:40:02.606Z,5.74
2023-02-14T11:45:02.276Z,5.61
2023-02-14T11:50:03.047Z,5.74
2023-02-14T11:55:03.329Z,5.68
2023-02-14T12:00:02.887Z,5.72
2023-02-14T12:05:02.478Z,6.03
2023-02-14T12:10:02.281Z,6.14
2023-02-14T12:15:03.060Z,6.34
2023-02-14T12:20:03.029Z,6.08
2023-02-14T12:25:03.075Z,6.18
2023-02-14T12:30:02.841Z,6.19
2023-02-14T12:35:02.568Z,6.34
2023-02-14T12:40:02.728Z,6.15
2023-02-14T12:45:02.643Z,6.11
2023-02-14T12:50:02.255Z,6.07
2023-02-14T12:55:03.392Z,6.07
2023-02-14T13:00:03.149Z,6.03
2023-02-14T13:05:02.981Z,5.95
2023-02-14T13:10:03.026Z,6.19
2023-02-14T13:15:02.915Z,6.6
2023-02-14T13:20:02.710Z,6.14
2023-02-14T13:25:02.385Z,5.85
2023-02-14T13:30:03.335Z,6.06
2023-02-14T13:35:02.982Z,5.82
2023-02-14T13:40:03.030Z,6.1
2023-02-14T13:45:02.594Z,6.57
2023-02-14T13:50:02.233Z,6.32
2023-02-14T13:55:02.640Z,6.06
2023-02-14T14:00:03.493Z,5.96
2023-02-14T14:05:02.638Z,5.89
2023-02-14T14:10:02.424Z,5.79
2023-02-14T14:15:02.676Z,6.87
2023-02-14T14:20:02.463Z,7.28
2023-02-14T14:25:03.175Z,7.88
2023-02-14T14:30:02.900Z,7.41
2023-02-14T14:35:02.549Z,7.79
2023-02-14T14:40:02.317Z,7.22
2023-02-14T14:45:03.028Z,7.17
2023-02-14T14:50:03.018Z,6.94
2023-02-14T14:55:03.710Z,6.83
2023-02-14T15:00:02.519Z,7.26
2023-02-14T15:05:02.268Z,7.11
2023-02-14T15:10:03.511Z,6.52
2023-02-14T15:15:02.761Z,6.4
2023-02-14T15:20:02.511Z,6.22
2023-02-14T15:25:02.378Z,5.98
2023-02-14T15:30:03.138Z,5.83
2023-02-14T15:35:02.888Z,5.64
2023-02-14T15:40:02.771Z,5.54
2023-02-14T15:45:02.456Z,5.34
2023-02-14T15:50:03.163Z,5.08
2023-02-14T15:55:03.725Z,4.82
2023-02-14T16:00:02.709Z,4.59
2023-02-14T16:05:02.922Z,4.17
2023-02-14T16:10:02.513Z,3.87
2023-02-14T16:15:02.812Z,3.68
2023-02-14T16:20:02.349Z,3.53
2023-02-14T16:25:03.175Z,3.22
2023-02-14T16:30:03.106Z,3.01
2023-02-14T16:35:02.901Z,2.76
2023-02-14T16:40:02.779Z,2.75
2023-02-14T16:45:02.514Z,2.74
2023-02-14T16:50:02.193Z,2.66
2023-02-14T16:55:03.493Z,2.67
2023-02-14T17:00:02.985Z,2.55
2023-02-14T17:05:02.857Z,2.44
2023-02-14T17:10:02.554Z,2.5
2023-02-14T17:15:02.433Z,2.26
2023-02-14T17:20:02.228Z,2.25
2023-02-14T17:25:02.212Z,2.26
2023-02-14T17:30:03.099Z,2.15
2023-02-14T17:35:02.787Z,2.13
2023-02-14T17:40:02.566Z,2.04
2023-02-14T17:45:02.377Z,1.98
2023-02-14T17:50:03.164Z,1.93
2023-02-14T17:55:03.979Z,1.9
2023-02-14T18:00:02.690Z,2.01
2023-02-14T18:05:02.323Z,1.96
2023-02-14T18:10:03.206Z,1.74
2023-02-14T18:15:03.243Z,1.63
2023-02-14T18:20:03.189Z,1.43
2023-02-14T18:25:02.925Z,1.46
2023-02-14T18:30:02.656Z,1.42
2023-02-14T18:35:02.405Z,1.37
2023-02-14T18:40:02.289Z,1.33
2023-02-14T18:45:03.140Z,1.19
2023-02-14T18:50:02.956Z,1.09
2023-02-14T18:55:04.067Z,1.01
2023-02-14T19:00:02.994Z,0.9
2023-02-14T19:05:03.086Z,0.9
2023-02-14T19:10:02.884Z,0.86
2023-02-14T19:15:02.680Z,0.78
2023-02-14T19:20:02.464Z,0.78
2023-02-14T19:25:03.156Z,0.94
2023-02-14T19:30:02.863Z,0.93
2023-02-14T19:35:02.478Z,0.77
2023-02-14T19:40:02.322Z,0.66
2023-02-14T19:45:03.179Z,0.58
2023-02-14T19:50:02.784Z,0.42
2023-02-14T19:55:03.324Z,0.46
2023-02-14T20:00:02.582Z,0.43
2023-02-14T20:05:03.090Z,0.45
2023-02-14T20:10:02.828Z,0.31
2023-02-14T20:15:02.694Z,0.1
2023-02-14T20:20:02.535Z,0.05
2023-02-14T20:25:02.268Z,-0.07
2023-02-14T20:30:03.076Z,-0.07
2023-02-14T20:35:02.835Z,-0.13
2023-02-14T20:40:02.418Z,-0.11
2023-02-14T20:45:02.503Z,-0.18
2023-02-14T20:50:02.327Z,-0.27
2023-02-14T20:55:03.210Z,-0.38
2023-02-14T21:00:03.135Z,-0.38
2023-02-14T21:05:02.913Z,-0.43
2023-02-14T21:10:02.589Z,-0.5
2023-02-14T21:15:02.375Z,-0.68
2023-02-14T21:20:03.116Z,-0.69
2023-02-14T21:25:02.884Z,-0.77
2023-02-14T21:30:02.630Z,-0.84
2023-02-14T21:35:02.230Z,-0.9
2023-02-14T21:40:03.140Z,-0.85
2023-02-14T21:45:02.864Z,-0.88
2023-02-14T21:50:02.753Z,-0.82
2023-02-14T21:55:02.890Z,-0.93
2023-02-14T22:00:03.178Z,-0.91
2023-02-14T22:05:02.812Z,-0.96
2023-02-14T22:10:02.986Z,-1.17
2023-02-14T22:15:02.816Z,-1.16
2023-02-14T22:20:02.452Z,-1.24
2023-02-14T22:25:02.336Z,-1.25
2023-02-14T22:30:03.085Z,-1.38
2023-02-14T22:35:02.742Z,-1.53
2023-02-14T22:40:02.462Z,-1.61
2023-02-14T22:45:03.227Z,-1.49
2023-02-14T22:50:03.454Z,-1.63
2023-02-14T22:55:03.727Z,-1.73
2023-02-14T23:00:02.636Z,-2.1
2023-02-14T23:05:02.871Z,-2.76
2023-02-14T23:10:02.573Z,-3.02
2023-02-14T23:15:02.655Z,-3.04
2023-02-14T23:20:03.141Z,-2.3
2023-02-14T23:25:02.817Z,-1.67
2023-02-14T23:30:02.586Z,-1.6
2023-02-14T23:35:02.226Z,-1.55
2023-02-14T23:40:03.073Z,-1.65
2023-02-14T23:45:03.149Z,-1.68
2023-02-14T23:50:02.908Z,-1.78
2023-02-14T23:55:03.308Z,-2.21
